Time;durP1;ratioP1;P1;durP2;ratioP2;P2;SDS_P1;SDS_P2;PMS_P1;PMS_P2;Temp;Humidity;BMP_temperature;BMP_pressure;BME280_temperature;BME280_humidity;BME280_pressure;Samples;Min_cycle;Max_cycle;Signal;HPM_P1;HPM_P2
2024/01/26 00:01:53;;;;;;;7.30;6.50;;;11.80;99.90;;;;;;5096611;28;20245;-85
2024/01/26 00:04:18;;;;;;;8.37;6.23;;;11.80;99.90;;;;;;5100272;28;20185;-87
2024/01/26 00:06:45;;;;;;;8.03;6.90;;;11.80;99.90;;;;;;5092175;28;20541;-88
2024/01/26 00:09:11;;;;;;;11.30;7.10;;;11.80;99.90;;;;;;5092023;28;20194;-86
2024/01/26 00:11:41;;;;;;;8.17;7.27;;;11.80;99.90;;;;;;5092274;28;20417;-87
2024/01/26 00:14:10;;;;;;;8.10;7.23;;;11.80;99.90;;;;;;5092436;28;20193;-87
2024/01/26 00:16:37;;;;;;;8.57;7.77;;;11.80;99.90;;;;;;5091623;28;20664;-87
2024/01/26 00:19:07;;;;;;;7.97;7.27;;;11.80;99.90;;;;;;5092719;28;20194;-88
2024/01/26 00:21:33;;;;;;;9.13;8.20;;;11.70;99.90;;;;;;5093231;28;20184;-87
2024/01/26 00:23:59;;;;;;;9.47;8.47;;;11.80;99.90;;;;;;5101504;28;20164;-84
2024/01/26 00:26:24;;;;;;;10.10;9.20;;;11.80;99.90;;;;;;5102487;28;20643;-86
2024/01/26 00:28:51;;;;;;;9.67;8.67;;;11.80;99.90;;;;;;5092701;28;20183;-87
2024/01/26 00:31:19;;;;;;;10.70;9.70;;;11.90;99.90;;;;;;5093699;28;20809;-87
2024/01/26 00:33:45;;;;;;;11.00;10.00;;;11.70;99.90;;;;;;5091583;28;20644;-87
2024/01/26 00:36:12;;;;;;;11.10;9.90;;;11.70;99.90;;;;;;5091652;28;20182;-86
2024/01/26 00:38:38;;;;;;;11.07;9.97;;;11.90;99.90;;;;;;5092094;28;20231;-85
2024/01/26 00:41:10;;;;;;;10.87;9.87;;;11.90;99.90;;;;;;5093801;28;20198;-84
2024/01/26 00:43:37;;;;;;;11.43;10.10;;;11.90;99.90;;;;;;5094612;28;20198;-85
2024/01/26 00:46:03;;;;;;;10.83;9.73;;;11.90;99.90;;;;;;5092059;28;20171;-87
2024/01/26 00:48:29;;;;;;;10.47;9.47;;;11.90;99.90;;;;;;5091557;28;20193;-87
2024/01/26 00:50:55;;;;;;;10.03;9.03;;;12.00;99.90;;;;;;5092004;28;20207;-87
2024/01/26 00:53:22;;;;;;;10.33;8.93;;;11.90;99.90;;;;;;5094581;28;20650;-88
2024/01/26 00:55:48;;;;;;;9.53;8.50;;;12.00;99.90;;;;;;5095153;28;20194;-88
2024/01/26 00:58:14;;;;;;;8.90;8.00;;;11.80;99.90;;;;;;5094544;28;20172;-87
2024/01/26 01:00:40;;;;;;;9.10;8.03;;;11.90;99.90;;;;;;5094949;28;20207;-86
2024/01/26 01:03:06;;;;;;;8.87;7.10;;;11.90;99.90;;;;;;5094599;28;20183;-85
2024/01/26 01:05:31;;;;;;;8.73;7.70;;;11.80;99.90;;;;;;5093104;28;20826;-86
2024/01/26 01:07:57;;;;;;;7.80;7.00;;;11.70;99.90;;;;;;5095265;28;20285;-87
2024/01/26 01:10:23;;;;;;;9.83;7.17;;;11.60;99.90;;;;;;5094940;28;20204;-86
2024/01/26 01:12:49;;;;;;;8.23;7.00;;;11.60;99.90;;;;;;5095324;28;20199;-86
2024/01/26 01:15:17;;;;;;;10.10;8.00;;;11.60;99.90;;;;;;5095496;28;20171;-85
2024/01/26 01:17:43;;;;;;;9.80;6.97;;;11.60;99.90;;;;;;5093489;28;20206;-86
2024/01/26 01:20:10;;;;;;;6.83;6.13;;;11.60;99.90;;;;;;5095005;28;20167;-87
2024/01/26 01:22:43;;;;;;;9.03;6.30;;;11.50;99.90;;;;;;5096264;28;20171;-87
2024/01/26 01:25:13;;;;;;;7.73;6.23;;;11.50;99.90;;;;;;5112368;28;20160;-86
2024/01/26 01:27:39;;;;;;;8.07;6.67;;;11.50;99.90;;;;;;5099436;28;20169;-88
2024/01/26 01:30:06;;;;;;;8.00;6.70;;;11.60;99.90;;;;;;5094832;28;20172;-86
2024/01/26 01:32:32;;;;;;;8.57;6.57;;;11.60;99.90;;;;;;5093973;28;20184;-86
2024/01/26 01:34:58;;;;;;;8.00;6.13;;;11.70;99.90;;;;;;5093669;28;20522;-88
2024/01/26 01:37:25;;;;;;;7.80;6.87;;;11.70;99.90;;;;;;5095990;28;20165;-86
2024/01/26 01:39:51;;;;;;;7.20;6.00;;;11.70;99.90;;;;;;5094821;28;20167;-86
2024/01/26 01:42:16;;;;;;;9.67;7.07;;;11.80;99.90;;;;;;5093773;28;20538;-86
2024/01/26 01:44:43;;;;;;;7.40;6.30;;;11.80;99.90;;;;;;5094251;28;20172;-87
2024/01/26 01:47:10;;;;;;;7.97;6.63;;;11.80;99.90;;;;;;5092977;28;20172;-86
2024/01/26 01:49:40;;;;;;;8.23;6.90;;;11.80;99.90;;;;;;5093913;28;20232;-87
2024/01/26 01:52:08;;;;;;;8.47;7.07;;;11.90;99.90;;;;;;5093458;28;20211;-88
2024/01/26 01:54:34;;;;;;;8.77;6.87;;;11.80;99.90;;;;;;5092903;28;20224;-85
2024/01/26 01:57:04;;;;;;;9.47;6.97;;;11.70;99.90;;;;;;5093413;28;20270;-86
2024/01/26 01:59:31;;;;;;;9.63;6.90;;;11.70;99.90;;;;;;5093779;28;20857;-87
2024/01/26 02:01:57;;;;;;;8.57;6.67;;;11.70;99.90;;;;;;5094116;28;20199;-87
2024/01/26 02:04:23;;;;;;;8.20;6.60;;;11.70;99.90;;;;;;5093148;28;20185;-87
2024/01/26 02:07:03;;;;;;;9.23;7.30;;;11.70;99.90;;;;;;5093381;28;20179;-85
2024/01/26 02:09:29;;;;;;;9.47;6.90;;;11.90;99.90;;;;;;5092627;28;20176;-86
2024/01/26 02:11:56;;;;;;;8.87;6.67;;;11.80;99.90;;;;;;5093858;28;20207;-87
2024/01/26 02:14:23;;;;;;;8.63;7.10;;;11.70;99.90;;;;;;5094958;28;20183;-88
2024/01/26 02:16:59;;;;;;;9.67;6.73;;;11.80;99.90;;;;;;5094093;28;20272;-86
2024/01/26 02:19:27;;;;;;;12.83;7.87;;;11.90;99.90;;;;;;5093347;28;20182;-86
2024/01/26 02:21:53;;;;;;;10.13;7.10;;;11.90;99.90;;;;;;5093481;28;20267;-86
2024/01/26 02:24:19;;;;;;;8.63;7.13;;;11.90;99.90;;;;;;5092896;28;20268;-85
2024/01/26 02:26:45;;;;;;;9.97;6.73;;;11.90;99.90;;;;;;5094515;28;20180;-87
2024/01/26 02:29:11;;;;;;;11.37;7.30;;;11.80;99.90;;;;;;5093754;28;20179;-86
2024/01/26 02:31:37;;;;;;;10.50;7.33;;;11.80;99.90;;;;;;5093319;28;20208;-85
2024/01/26 02:34:03;;;;;;;8.73;7.17;;;11.90;99.90;;;;;;5093658;28;20176;-86
2024/01/26 02:36:31;;;;;;;9.43;7.37;;;11.80;99.90;;;;;;5094380;28;20664;-89
2024/01/26 02:38:56;;;;;;;10.83;7.30;;;11.70;99.90;;;;;;5096293;28;20175;-86
2024/01/26 02:41:22;;;;;;;8.30;6.73;;;11.70;99.90;;;;;;5096009;28;20181;-86
2024/01/26 02:43:48;;;;;;;8.83;7.80;;;11.60;99.90;;;;;;5096130;28;20208;-86
2024/01/26 02:46:14;;;;;;;9.83;7.63;;;11.60;99.90;;;;;;5106434;28;20175;-84
2024/01/26 02:48:40;;;;;;;9.97;7.53;;;11.60;99.90;;;;;;5104267;28;20180;-86
2024/01/26 02:51:06;;;;;;;10.83;7.30;;;11.50;99.90;;;;;;5095051;28;20211;-87
2024/01/26 02:53:33;;;;;;;10.03;8.20;;;11.50;99.90;;;;;;5091556;28;20216;-86
2024/01/26 02:55:58;;;;;;;8.87;6.93;;;11.50;99.90;;;;;;5094899;28;20270;-86
2024/01/26 02:58:24;;;;;;;10.87;7.63;;;11.50;99.90;;;;;;5096587;28;20276;-86
2024/01/26 03:00:51;;;;;;;9.97;8.40;;;11.50;99.90;;;;;;5096278;28;20196;-86
2024/01/26 03:03:18;;;;;;;11.33;8.40;;;11.60;99.90;;;;;;5097155;28;20201;-87
2024/01/26 03:05:43;;;;;;;11.87;7.50;;;11.60;99.90;;;;;;5100053;28;20237;-86
2024/01/26 03:08:09;;;;;;;9.80;8.07;;;11.60;99.90;;;;;;5093561;28;20172;-87
2024/01/26 03:10:35;;;;;;;8.97;7.90;;;11.70;99.90;;;;;;5090704;28;20261;-86
2024/01/26 03:13:00;;;;;;;10.80;8.07;;;11.60;99.90;;;;;;5092198;28;20223;-85
2024/01/26 03:15:26;;;;;;;9.90;8.27;;;11.50;99.90;;;;;;5092660;28;20199;-87
2024/01/26 03:17:52;;;;;;;10.97;7.30;;;11.70;99.90;;;;;;5092957;28;20663;-86
2024/01/26 03:20:17;;;;;;;9.60;7.57;;;11.60;99.90;;;;;;5092280;28;20173;-85
2024/01/26 03:22:43;;;;;;;8.10;7.30;;;11.50;99.90;;;;;;5092976;28;20223;-87
2024/01/26 03:25:09;;;;;;;11.53;8.60;;;11.60;99.90;;;;;;5092067;28;20179;-85
2024/01/26 03:27:36;;;;;;;10.37;8.27;;;11.50;99.90;;;;;;5091535;28;20181;-87
2024/01/26 03:30:03;;;;;;;9.67;7.57;;;11.60;99.90;;;;;;5091986;28;20264;-86
2024/01/26 03:32:29;;;;;;;9.10;8.13;;;11.40;99.90;;;;;;5092208;28;20528;-86
2024/01/26 03:34:55;;;;;;;12.17;9.53;;;11.40;99.90;;;;;;5091855;28;20194;-87
2024/01/26 03:37:20;;;;;;;11.10;9.93;;;11.60;99.90;;;;;;5092612;28;20186;-86
2024/01/26 03:39:49;;;;;;;12.93;10.40;;;11.50;99.90;;;;;;5092097;28;20171;-86
2024/01/26 03:42:15;;;;;;;10.50;9.40;;;11.50;99.90;;;;;;5092328;28;20172;-87
2024/01/26 03:44:42;;;;;;;12.67;10.47;;;11.40;99.90;;;;;;5092810;28;20169;-86
2024/01/26 03:47:09;;;;;;;12.50;11.20;;;11.40;99.90;;;;;;5092114;28;20585;-86
2024/01/26 03:49:39;;;;;;;13.20;11.03;;;11.40;99.90;;;;;;5091582;28;20165;-86
2024/01/26 03:52:05;;;;;;;13.70;12.33;;;11.40;99.90;;;;;;5092374;28;20211;-89
2024/01/26 03:54:31;;;;;;;12.87;11.47;;;11.40;99.90;;;;;;5093038;28;20168;-86
2024/01/26 03:56:57;;;;;;;12.87;10.87;;;11.50;99.90;;;;;;5092202;28;20684;-85
2024/01/26 03:59:23;;;;;;;12.60;11.07;;;11.40;99.90;;;;;;5097850;28;20243;-85
2024/01/26 04:01:48;;;;;;;14.40;9.73;;;11.40;99.90;;;;;;5110822;28;20679;-87
2024/01/26 04:04:14;;;;;;;13.97;10.37;;;11.50;99.90;;;;;;5092036;28;20175;-85
2024/01/26 04:06:40;;;;;;;11.93;9.80;;;11.50;99.90;;;;;;5094729;28;20203;-85
2024/01/26 04:09:10;;;;;;;13.03;10.17;;;11.60;99.90;;;;;;5093312;28;20208;-85
2024/01/26 04:11:36;;;;;;;11.63;10.50;;;11.60;99.90;;;;;;5093129;28;20214;-87
2024/01/26 04:14:02;;;;;;;12.73;11.17;;;11.50;99.90;;;;;;5092085;28;20556;-86
2024/01/26 04:16:28;;;;;;;13.23;11.07;;;11.60;99.90;;;;;;5091659;28;20633;-86
2024/01/26 04:18:54;;;;;;;12.73;11.37;;;11.50;99.90;;;;;;5093023;28;20608;-86
2024/01/26 04:21:20;;;;;;;12.77;11.33;;;11.70;99.90;;;;;;5091681;28;20175;-87
2024/01/26 04:23:46;;;;;;;16.03;11.50;;;11.60;99.90;;;;;;5091926;28;20677;-87
2024/01/26 04:26:12;;;;;;;15.70;12.40;;;11.50;99.90;;;;;;5092084;28;20171;-86
2024/01/26 04:28:37;;;;;;;13.63;12.00;;;11.50;99.90;;;;;;5094856;28;20254;-87
2024/01/26 04:31:04;;;;;;;14.97;12.47;;;11.50;99.90;;;;;;5095649;28;20214;-86
2024/01/26 04:33:30;;;;;;;15.83;12.77;;;11.40;99.90;;;;;;5095404;28;20233;-84
2024/01/26 04:35:56;;;;;;;15.83;13.57;;;11.50;99.90;;;;;;5095518;28;20171;-85
2024/01/26 04:38:21;;;;;;;15.87;12.80;;;11.50;99.90;;;;;;5095270;28;20168;-86
2024/01/26 04:40:47;;;;;;;15.33;13.33;;;11.40;99.90;;;;;;5096015;28;20211;-87
2024/01/26 04:43:13;;;;;;;15.17;13.63;;;11.50;99.90;;;;;;5094783;28;20173;-88
2024/01/26 04:45:38;;;;;;;18.47;14.73;;;11.50;99.90;;;;;;5095415;28;20271;-87
2024/01/26 04:48:05;;;;;;;16.30;13.90;;;11.60;99.90;;;;;;5095395;28;20254;-86
2024/01/26 04:50:33;;;;;;;15.60;13.30;;;11.60;99.90;;;;;;5107378;28;20215;-88
2024/01/26 04:52:59;;;;;;;16.87;12.83;;;11.60;99.90;;;;;;5102751;28;20184;-86
2024/01/26 04:55:31;;;;;;;15.07;13.47;;;11.60;99.90;;;;;;5094896;28;20172;-86
2024/01/26 04:57:56;;;;;;;17.03;12.63;;;11.70;99.90;;;;;;5094227;28;20170;-86
2024/01/26 05:00:22;;;;;;;13.53;12.03;;;11.70;99.90;;;;;;5094956;28;20611;-85
2024/01/26 05:02:48;;;;;;;13.17;10.97;;;11.70;99.90;;;;;;5094009;28;20179;-86
2024/01/26 05:05:15;;;;;;;15.07;11.07;;;11.60;99.90;;;;;;5094555;28;20248;-86
2024/01/26 05:07:40;;;;;;;12.33;10.50;;;11.70;99.90;;;;;;5095028;28;20218;-86
2024/01/26 05:10:07;;;;;;;15.30;11.70;;;11.60;99.90;;;;;;5094084;28;20205;-85
2024/01/26 05:12:33;;;;;;;13.07;10.47;;;11.60;99.90;;;;;;5095211;28;20191;-86
2024/01/26 05:14:58;;;;;;;14.53;11.27;;;11.60;99.90;;;;;;5095225;28;20244;-87
2024/01/26 05:17:25;;;;;;;12.03;10.70;;;11.70;99.90;;;;;;5094002;28;20178;-86
2024/01/26 05:19:51;;;;;;;15.30;12.13;;;11.70;99.90;;;;;;5093666;28;20180;-86
2024/01/26 05:22:18;;;;;;;16.33;11.23;;;11.50;99.90;;;;;;5095514;28;20181;-84
2024/01/26 05:24:44;;;;;;;14.30;11.30;;;11.60;99.90;;;;;;5094669;28;20172;-84
2024/01/26 05:27:10;;;;;;;17.03;11.47;;;11.70;99.90;;;;;;5098144;28;20179;-85
2024/01/26 05:29:36;;;;;;;15.37;11.63;;;11.70;99.90;;;;;;5098961;28;20164;-87
2024/01/26 05:32:02;;;;;;;13.57;11.57;;;11.70;99.90;;;;;;5095549;28;20271;-85
2024/01/26 05:34:28;;;;;;;15.97;12.07;;;11.60;99.90;;;;;;5095356;28;20618;-87
2024/01/26 05:36:53;;;;;;;18.00;11.77;;;11.60;99.90;;;;;;5100276;28;20177;-88
2024/01/26 05:39:19;;;;;;;15.97;12.03;;;11.70;99.90;;;;;;5098201;28;20180;-85
2024/01/26 05:41:45;;;;;;;14.53;11.17;;;11.60;99.90;;;;;;5101059;28;20276;-86
2024/01/26 05:44:11;;;;;;;14.07;12.13;;;11.50;99.90;;;;;;5094360;28;20172;-87
2024/01/26 05:46:36;;;;;;;17.07;11.57;;;11.60;99.90;;;;;;5093640;28;20225;-87
2024/01/26 05:49:02;;;;;;;12.67;11.10;;;11.50;99.90;;;;;;5093267;28;20640;-86
2024/01/26 05:51:28;;;;;;;13.37;11.50;;;11.50;99.90;;;;;;5094413;28;20212;-88
2024/01/26 05:53:54;;;;;;;14.47;11.57;;;11.60;99.90;;;;;;5093243;28;20751;-88
2024/01/26 05:56:20;;;;;;;15.07;11.80;;;11.50;99.90;;;;;;5092919;28;20741;-86
2024/01/26 05:58:52;;;;;;;18.43;11.83;;;11.40;99.90;;;;;;5092335;28;20177;-85
2024/01/26 06:01:18;;;;;;;13.40;12.00;;;11.60;99.90;;;;;;5093344;28;20195;-87
2024/01/26 06:03:44;;;;;;;15.40;10.67;;;11.50;99.90;;;;;;5094246;28;20192;-87
2024/01/26 06:06:10;;;;;;;15.83;11.90;;;11.50;99.90;;;;;;5093696;28;20184;-88
2024/01/26 06:08:36;;;;;;;14.70;11.17;;;11.60;99.90;;;;;;5093174;28;20170;-89
2024/01/26 06:11:04;;;;;;;16.30;11.80;;;11.50;99.90;;;;;;5093398;28;20208;-89
2024/01/26 06:13:30;;;;;;;16.70;11.37;;;11.60;99.90;;;;;;5093365;28;20623;-87
2024/01/26 06:15:55;;;;;;;14.20;10.77;;;11.70;99.90;;;;;;5092151;28;20205;-85
2024/01/26 06:18:21;;;;;;;13.23;10.43;;;11.80;99.90;;;;;;5094038;28;20290;-87
2024/01/26 06:20:47;;;;;;;14.00;10.03;;;11.60;99.90;;;;;;5093265;28;20227;-88
2024/01/26 06:23:12;;;;;;;12.33;9.90;;;11.60;99.90;;;;;;5092244;28;20183;-87
2024/01/26 06:25:38;;;;;;;13.83;9.30;;;11.60;99.90;;;;;;5092923;28;20172;-88
2024/01/26 06:28:04;;;;;;;11.47;8.97;;;11.60;99.90;;;;;;5093598;28;20221;-88
2024/01/26 06:30:30;;;;;;;11.67;8.67;;;11.60;99.90;;;;;;5092630;28;20334;-90
2024/01/26 06:32:55;;;;;;;11.57;9.13;;;11.70;99.90;;;;;;5095329;28;20175;-87
2024/01/26 06:35:21;;;;;;;11.27;8.47;;;11.70;99.90;;;;;;5093409;28;20587;-85
2024/01/26 06:37:47;;;;;;;12.07;8.40;;;11.80;99.90;;;;;;5093543;28;20628;-86
2024/01/26 06:40:13;;;;;;;10.40;8.67;;;11.90;99.90;;;;;;5092014;28;20568;-88
2024/01/26 06:42:39;;;;;;;11.20;8.30;;;11.70;99.90;;;;;;5093188;28;20179;-87
2024/01/26 06:45:09;;;;;;;10.87;8.00;;;11.80;99.90;;;;;;5092819;28;20228;-87
2024/01/26 06:47:34;;;;;;;10.47;7.93;;;11.80;99.90;;;;;;5094442;28;20182;-87
2024/01/26 06:50:00;;;;;;;12.27;8.27;;;11.80;99.90;;;;;;5098381;28;20196;-87
2024/01/26 06:52:27;;;;;;;11.73;8.20;;;11.90;99.90;;;;;;5094541;28;20212;-90
2024/01/26 06:54:52;;;;;;;10.27;7.37;;;11.90;99.90;;;;;;5093930;28;20637;-92
2024/01/26 06:57:18;;;;;;;9.50;7.47;;;11.90;99.90;;;;;;5094624;28;20263;-89
2024/01/26 06:59:44;;;;;;;10.93;7.60;;;12.00;99.90;;;;;;5094665;28;20243;-90
2024/01/26 07:02:10;;;;;;;9.60;7.03;;;12.00;99.90;;;;;;5098562;28;20236;-91
2024/01/26 07:04:35;;;;;;;10.13;7.37;;;11.90;99.90;;;;;;5103760;28;20177;-91
2024/01/26 07:07:01;;;;;;;8.37;7.00;;;12.10;99.90;;;;;;5094278;28;20180;-90
2024/01/26 07:09:27;;;;;;;9.47;6.87;;;12.00;99.90;;;;;;5092686;28;20169;-88
2024/01/26 07:11:52;;;;;;;10.27;7.07;;;12.10;99.90;;;;;;5092043;28;20215;-87
2024/01/26 07:14:19;;;;;;;9.17;7.37;;;12.10;99.90;;;;;;5091977;28;20194;-85
2024/01/26 07:16:48;;;;;;;13.30;7.80;;;12.10;99.90;;;;;;5094364;28;20250;-88
2024/01/26 07:19:14;;;;;;;8.10;6.57;;;12.10;99.90;;;;;;5084333;28;20173;-90
2024/01/26 07:21:40;;;;;;;7.70;6.40;;;12.20;99.90;;;;;;5078327;28;20184;-87
2024/01/26 07:24:06;;;;;;;9.73;6.73;;;12.30;99.90;;;;;;5071942;28;20649;-86
2024/01/26 07:26:32;;;;;;;8.33;6.33;;;12.30;99.90;;;;;;5085680;28;20270;-86
2024/01/26 07:28:58;;;;;;;8.67;6.37;;;12.30;99.90;;;;;;5088891;28;20179;-87
2024/01/26 07:31:23;;;;;;;8.53;6.40;;;12.20;99.90;;;;;;5088087;28;20209;-86
2024/01/26 07:33:50;;;;;;;10.63;7.07;;;12.30;99.90;;;;;;5088678;28;20318;-87
2024/01/26 07:36:16;;;;;;;9.07;6.50;;;12.30;99.90;;;;;;5089179;28;20176;-86
2024/01/26 07:38:41;;;;;;;6.93;5.67;;;12.30;99.90;;;;;;5091555;28;20171;-87
2024/01/26 07:41:07;;;;;;;7.90;5.70;;;12.30;99.90;;;;;;5105550;28;20179;-86
2024/01/26 07:43:33;;;;;;;8.07;5.10;;;12.40;99.90;;;;;;5098467;28;20235;-87
2024/01/26 07:45:58;;;;;;;9.40;5.43;;;12.50;99.90;;;;;;5089072;28;20176;-87
2024/01/26 07:48:24;;;;;;;9.43;5.37;;;12.40;99.90;;;;;;5088101;28;20188;-87
2024/01/26 07:50:50;;;;;;;8.73;5.83;;;12.50;99.90;;;;;;5088536;28;20278;-87
2024/01/26 07:53:16;;;;;;;8.70;5.23;;;12.50;99.90;;;;;;5088668;28;20160;-87
2024/01/26 07:55:41;;;;;;;7.53;5.73;;;12.60;99.90;;;;;;5087154;28;20180;-86
2024/01/26 07:58:07;;;;;;;8.80;5.63;;;12.50;99.90;;;;;;5089064;28;20577;-87
2024/01/26 08:00:33;;;;;;;8.53;5.47;;;12.50;99.90;;;;;;5087764;28;20222;-86
2024/01/26 08:02:59;;;;;;;8.40;6.37;;;12.50;99.90;;;;;;5090677;28;20619;-86
2024/01/26 08:05:25;;;;;;;6.83;5.47;;;12.50;99.90;;;;;;5094919;28;20187;-86
2024/01/26 08:07:51;;;;;;;9.17;5.40;;;12.60;99.90;;;;;;5096053;28;20172;-87
2024/01/26 08:10:16;;;;;;;8.23;5.37;;;12.60;99.90;;;;;;5094365;28;20248;-88
2024/01/26 08:12:42;;;;;;;10.73;6.67;;;12.60;99.90;;;;;;5102581;28;20183;-88
2024/01/26 08:15:08;;;;;;;10.10;5.73;;;12.50;99.90;;;;;;5106007;28;20187;-86
2024/01/26 08:17:34;;;;;;;6.90;5.63;;;12.50;99.90;;;;;;5092938;28;20171;-87
2024/01/26 08:20:03;;;;;;;8.23;5.57;;;12.60;99.90;;;;;;5092859;28;20188;-86
2024/01/26 08:22:30;;;;;;;8.00;5.77;;;12.50;99.90;;;;;;5092227;28;20441;-87
2024/01/26 08:24:58;;;;;;;6.70;5.30;;;12.50;99.90;;;;;;5091266;28;20235;-88
2024/01/26 08:27:25;;;;;;;8.40;5.53;;;12.50;99.90;;;;;;5091505;28;20181;-87
2024/01/26 08:29:51;;;;;;;6.97;5.23;;;12.50;99.90;;;;;;5092940;28;20186;-88
2024/01/26 08:32:17;;;;;;;8.63;5.10;;;12.50;99.90;;;;;;5094013;28;20211;-89
2024/01/26 08:34:42;;;;;;;9.57;5.43;;;12.50;99.90;;;;;;5092524;28;20632;-86
2024/01/26 08:37:08;;;;;;;8.50;5.80;;;12.50;99.90;;;;;;5092010;28;20279;-85
2024/01/26 08:39:37;;;;;;;6.90;5.33;;;12.40;99.90;;;;;;5091356;28;20204;-87
2024/01/26 08:42:03;;;;;;;7.53;5.40;;;12.40;99.90;;;;;;5091006;28;20188;-85
2024/01/26 08:44:30;;;;;;;9.00;5.73;;;12.40;99.90;;;;;;5091820;28;20191;-87
2024/01/26 08:46:56;;;;;;;10.13;5.97;;;12.50;99.90;;;;;;5092013;28;20274;-87
2024/01/26 08:49:22;;;;;;;10.43;5.93;;;12.50;99.90;;;;;;5091362;28;20653;-85
2024/01/26 08:51:48;;;;;;;10.07;6.57;;;12.50;99.90;;;;;;5091474;28;20208;-85
2024/01/26 08:54:14;;;;;;;9.77;6.20;;;12.50;99.90;;;;;;5092720;28;20694;-89
2024/01/26 08:56:43;;;;;;;11.80;6.23;;;12.60;99.90;;;;;;5092451;28;20267;-89
2024/01/26 08:59:09;;;;;;;10.77;6.07;;;12.60;99.90;;;;;;5093207;28;20192;-87
2024/01/26 09:01:36;;;;;;;10.73;5.73;;;12.70;99.90;;;;;;5092338;28;20225;-89
2024/01/26 09:04:05;;;;;;;8.67;5.93;;;12.60;99.90;;;;;;5090573;28;20757;-87
2024/01/26 09:06:37;;;;;;;10.57;6.73;;;12.60;99.90;;;;;;5091551;28;20187;-86
2024/01/26 09:09:04;;;;;;;10.70;6.20;;;12.60;99.90;;;;;;5090900;28;20173;-84
2024/01/26 09:11:30;;;;;;;11.87;6.37;;;12.60;99.90;;;;;;5091004;28;20211;-86
2024/01/26 09:13:59;;;;;;;10.90;6.17;;;12.70;99.90;;;;;;5090960;28;20179;-87
2024/01/26 09:16:24;;;;;;;9.17;6.20;;;12.60;99.90;;;;;;5090919;28;20258;-87
2024/01/26 09:18:50;;;;;;;9.33;5.50;;;12.60;99.90;;;;;;5091515;28;20270;-88
2024/01/26 09:21:17;;;;;;;8.27;4.10;;;12.50;99.90;;;;;;5090286;28;20192;-85
2024/01/26 09:23:45;;;;;;;5.90;2.00;;;12.30;99.90;;;;;;5092009;28;20180;-87
2024/01/26 09:26:11;;;;;;;8.77;2.63;;;11.90;99.90;;;;;;5092686;28;20173;-88
2024/01/26 09:28:37;;;;;;;4.87;1.80;;;11.80;99.90;;;;;;5091966;28;20179;-89
2024/01/26 09:31:04;;;;;;;5.17;1.83;;;11.60;99.90;;;;;;5091347;28;20213;-89
2024/01/26 09:33:30;;;;;;;7.43;2.00;;;11.60;99.90;;;;;;5090612;28;20286;-87
2024/01/26 09:35:56;;;;;;;6.10;1.93;;;11.50;99.90;;;;;;5095195;28;20236;-86
2024/01/26 09:38:23;;;;;;;5.87;2.20;;;11.50;99.90;;;;;;5106109;28;20176;-86
2024/01/26 09:40:49;;;;;;;7.23;1.83;;;11.70;99.90;;;;;;5092071;28;20182;-86
2024/01/26 09:43:15;;;;;;;10.10;1.90;;;11.70;99.90;;;;;;5091132;28;20196;-87
2024/01/26 09:45:42;;;;;;;5.97;1.93;;;11.80;99.90;;;;;;5093429;28;20187;-86
2024/01/26 09:48:09;;;;;;;7.17;1.87;;;11.80;99.90;;;;;;5091973;28;20607;-88
2024/01/26 09:50:36;;;;;;;7.57;1.90;;;12.00;99.90;;;;;;5091500;28;20198;-88
2024/01/26 09:53:05;;;;;;;7.40;2.30;;;12.10;99.90;;;;;;5092254;28;20168;-89
2024/01/26 09:55:34;;;;;;;7.47;2.50;;;12.10;99.90;;;;;;5090449;28;20183;-87
2024/01/26 09:57:59;;;;;;;9.73;2.77;;;12.10;99.90;;;;;;5090976;28;20185;-87
2024/01/26 10:00:26;;;;;;;8.20;2.43;;;12.30;99.90;;;;;;5089228;28;20311;-86
2024/01/26 10:02:52;;;;;;;8.93;3.10;;;12.20;99.90;;;;;;5091070;28;20190;-88
2024/01/26 10:05:18;;;;;;;10.33;3.63;;;12.20;99.90;;;;;;5090389;28;20171;-87
2024/01/26 10:07:45;;;;;;;9.13;2.40;;;12.20;99.90;;;;;;5090837;28;20179;-88
2024/01/26 10:10:11;;;;;;;9.80;2.90;;;12.30;99.90;;;;;;5090133;28;20251;-86
2024/01/26 10:12:38;;;;;;;4.87;1.57;;;12.30;99.90;;;;;;5086475;28;20240;-85
2024/01/26 10:15:09;;;;;;;7.33;2.80;;;12.20;99.90;;;;;;5090080;28;20173;-90
2024/01/26 10:17:35;;;;;;;5.83;1.87;;;12.10;99.90;;;;;;5090568;28;20190;-87
2024/01/26 10:20:10;;;;;;;6.97;2.10;;;12.20;99.90;;;;;;5090808;28;20617;-90
2024/01/26 10:22:39;;;;;;;8.53;2.37;;;12.10;99.90;;;;;;5090109;28;20198;-89
2024/01/26 10:25:05;;;;;;;6.63;1.97;;;12.10;99.90;;;;;;5088955;28;20186;-89
2024/01/26 10:27:32;;;;;;;6.50;2.00;;;12.10;99.90;;;;;;5089729;28;20203;-84
2024/01/26 10:29:58;;;;;;;4.60;1.60;;;12.00;99.90;;;;;;5089146;28;20672;-85
2024/01/26 10:32:31;;;;;;;4.97;1.50;;;11.90;99.90;;;;;;5088871;28;20215;-86
2024/01/26 10:35:01;;;;;;;6.20;1.57;;;11.90;99.90;;;;;;5090329;28;20215;-89
2024/01/26 10:37:37;;;;;;;6.43;1.77;;;11.80;99.90;;;;;;5090981;28;20726;-89
2024/01/26 10:40:04;;;;;;;6.90;1.93;;;11.90;99.90;;;;;;5091295;28;20237;-90
2024/01/26 10:42:30;;;;;;;4.30;1.60;;;11.90;99.90;;;;;;5089824;28;20195;-87
2024/01/26 10:45:00;;;;;;;4.00;1.53;;;11.90;99.90;;;;;;5090170;28;20225;-91
2024/01/26 10:47:26;;;;;;;7.67;1.97;;;11.90;99.90;;;;;;5090709;28;20229;-89
2024/01/26 10:49:57;;;;;;;4.37;1.60;;;11.90;99.90;;;;;;5088883;28;20176;-91
2024/01/26 10:52:23;;;;;;;5.23;1.70;;;11.90;99.90;;;;;;5088619;28;20255;-84
2024/01/26 10:54:51;;;;;;;8.13;1.73;;;11.90;99.90;;;;;;5086146;28;20180;-88
2024/01/26 10:57:21;;;;;;;2.70;1.20;;;11.90;99.90;;;;;;5089557;28;20203;-87
2024/01/26 10:59:47;;;;;;;7.20;1.60;;;11.80;99.90;;;;;;5090346;28;20192;-88
2024/01/26 11:02:31;;;;;;;5.37;1.47;;;11.70;99.90;;;;;;5101523;28;20570;-88
2024/01/26 11:05:02;;;;;;;5.60;1.90;;;11.80;99.90;;;;;;5090271;28;21016;-87
2024/01/26 11:07:31;;;;;;;8.23;2.33;;;11.80;99.90;;;;;;5088436;28;20549;-86
2024/01/26 11:10:04;;;;;;;5.80;1.27;;;11.80;99.90;;;;;;5092095;28;20180;-91
2024/01/26 11:12:32;;;;;;;3.73;1.40;;;11.60;99.90;;;;;;5092956;28;20211;-93
2024/01/26 11:15:12;;;;;;;5.43;1.63;;;11.50;99.90;;;;;;5093630;28;20211;-91
2024/01/26 11:17:52;;;;;;;5.57;1.60;;;11.40;99.90;;;;;;5093704;28;20285;-90
2024/01/26 11:20:26;;;;;;;6.83;1.13;;;11.30;99.90;;;;;;5093454;28;20163;-85
2024/01/26 11:23:04;;;;;;;5.40;1.50;;;11.00;99.90;;;;;;5092201;28;20172;-88
2024/01/26 11:25:53;;;;;;;8.43;1.80;;;10.90;99.90;;;;;;5092668;28;20172;-88
2024/01/26 11:28:25;;;;;;;5.93;1.53;;;11.10;99.90;;;;;;5093141;28;20171;-92
2024/01/26 11:30:57;;;;;;;6.20;1.67;;;11.00;99.90;;;;;;5111666;28;20195;-88
2024/01/26 11:33:24;;;;;;;8.20;2.40;;;11.00;99.90;;;;;;5108579;28;20180;-85
2024/01/26 11:36:01;;;;;;;7.53;1.60;;;10.90;99.90;;;;;;5096267;28;20171;-88
2024/01/26 11:38:27;;;;;;;4.13;1.30;;;11.10;99.90;;;;;;5092927;28;20175;-91
2024/01/26 11:40:57;;;;;;;4.27;1.30;;;11.10;99.90;;;;;;5103740;28;20217;-86
2024/01/26 11:43:25;;;;;;;4.73;1.30;;;11.00;99.90;;;;;;5095863;28;20171;-89
2024/01/26 11:45:51;;;;;;;6.03;1.60;;;11.10;99.90;;;;;;5095205;28;20325;-88
2024/01/26 11:48:18;;;;;;;7.07;1.63;;;11.10;99.90;;;;;;5093301;28;20636;-91
2024/01/26 11:50:46;;;;;;;4.67;1.80;;;11.00;99.90;;;;;;5094061;28;20257;-91
2024/01/26 11:53:17;;;;;;;7.03;1.30;;;10.90;99.90;;;;;;5094764;28;20179;-91
2024/01/26 11:55:44;;;;;;;7.47;1.80;;;10.90;99.90;;;;;;5094721;28;20239;-88
2024/01/26 11:58:11;;;;;;;6.53;2.30;;;10.90;99.90;;;;;;5092010;28;20172;-84
2024/01/26 12:00:39;;;;;;;5.87;1.90;;;11.20;99.90;;;;;;5093868;28;20200;-87
2024/01/26 12:03:09;;;;;;;7.90;2.27;;;11.20;99.90;;;;;;5098464;28;20684;-86
2024/01/26 12:05:35;;;;;;;7.37;1.63;;;11.20;99.90;;;;;;5091681;28;20199;-86
2024/01/26 12:08:04;;;;;;;9.53;1.80;;;11.20;99.90;;;;;;5092106;28;20616;-85
2024/01/26 12:10:31;;;;;;;8.63;2.03;;;11.00;99.90;;;;;;5092679;28;20187;-87
2024/01/26 12:12:57;;;;;;;9.60;1.70;;;11.10;99.90;;;;;;5092732;28;20179;-87
2024/01/26 12:15:27;;;;;;;6.47;1.90;;;11.00;99.90;;;;;;5092859;28;20680;-88
2024/01/26 12:17:53;;;;;;;7.40;1.70;;;10.90;99.90;;;;;;5091806;28;20266;-88
2024/01/26 12:20:19;;;;;;;8.37;2.00;;;11.00;99.90;;;;;;5092785;28;20249;-87
2024/01/26 12:22:45;;;;;;;6.47;1.50;;;11.00;99.90;;;;;;5103921;28;20179;-85
2024/01/26 12:25:14;;;;;;;4.70;1.70;;;10.90;99.90;;;;;;5098995;28;20603;-87
2024/01/26 12:27:42;;;;;;;2.90;1.30;;;10.80;99.90;;;;;;5092287;28;20818;-88
2024/01/26 12:30:11;;;;;;;6.93;2.00;;;10.80;99.90;;;;;;5094159;28;20191;-89
2024/01/26 12:32:38;;;;;;;6.13;1.80;;;10.70;99.90;;;;;;5091777;28;20215;-88
2024/01/26 12:35:04;;;;;;;5.37;1.70;;;10.80;99.90;;;;;;5092956;28;20176;-86
2024/01/26 12:37:31;;;;;;;5.40;1.70;;;10.80;99.90;;;;;;5091526;28;20378;-89
2024/01/26 12:39:57;;;;;;;9.97;1.97;;;10.80;99.90;;;;;;5091512;28;20167;-87